createdAt,value
2019-01-25T00:02:09.331Z,99.90
2019-01-25T00:04:45.527Z,99.90
2019-01-25T00:07:22.242Z,99.90
2019-01-25T00:09:59.032Z,99.90
2019-01-25T00:12:35.999Z,99.90
2019-01-25T00:15:12.884Z,99.90
2019-01-25T00:17:50.399Z,99.90
2019-01-25T00:20:27.902Z,99.90
2019-01-25T00:23:05.032Z,99.90
2019-01-25T00:25:41.917Z,99.90
2019-01-25T00:28:19.081Z,99.90
2019-01-25T00:30:55.551Z,99.90
2019-01-25T00:33:32.312Z,99.90
2019-01-25T00:36:09.334Z,99.90
2019-01-25T00:38:46.348Z,99.90
2019-01-25T00:41:22.894Z,99.90
2019-01-25T00:43:59.615Z,99.90
2019-01-25T00:46:36.074Z,99.90
2019-01-25T00:49:12.967Z,99.90
2019-01-25T00:51:49.599Z,99.90
2019-01-25T00:54:26.584Z,99.90
2019-01-25T00:57:04.484Z,99.90
2019-01-25T00:59:41.559Z,99.90
2019-01-25T01:02:18.372Z,99.90
2019-01-25T01:04:55.375Z,99.90
2019-01-25T01:07:32.017Z,99.90
2019-01-25T01:10:14.027Z,99.90
2019-01-25T01:12:47.266Z,99.90
2019-01-25T01:15:24.419Z,99.90
2019-01-25T01:18:00.762Z,99.90
2019-01-25T01:20:37.578Z,99.90
2019-01-25T01:23:14.240Z,99.90
2019-01-25T01:25:52.623Z,99.90
2019-01-25T01:28:30.417Z,99.90
2019-01-25T01:31:06.823Z,99.90
2019-01-25T01:33:43.601Z,99.90
2019-01-25T01:36:20.028Z,99.90
2019-01-25T01:38:57.059Z,99.90
2019-01-25T01:41:34.591Z,98.90
2019-01-25T01:44:11.320Z,99.60
2019-01-25T01:46:48.122Z,97.80
2019-01-25T01:49:25.034Z,98.40
2019-01-25T01:52:01.416Z,97.20
2019-01-25T01:54:38.325Z,97.10
2019-01-25T01:57:15.075Z,98.00
2019-01-25T01:59:51.794Z,97.10
2019-01-25T02:02:31.045Z,95.90
2019-01-25T02:05:08.113Z,95.50
2019-01-25T02:07:44.580Z,96.50
2019-01-25T02:10:29.202Z,96.20
2019-01-25T02:13:01.930Z,95.30
2019-01-25T02:15:40.838Z,95.10
2019-01-25T02:18:20.889Z,95.20
2019-01-25T02:21:01.136Z,95.80
2019-01-25T02:23:37.950Z,94.30
2019-01-25T02:26:15.693Z,94.00
2019-01-25T02:28:52.425Z,94.10
2019-01-25T02:31:29.121Z,93.50
2019-01-25T02:34:05.733Z,93.80
2019-01-25T02:36:43.747Z,93.30
2019-01-25T02:39:20.330Z,92.60
2019-01-25T02:41:57.212Z,91.50
2019-01-25T02:44:33.903Z,91.50
2019-01-25T02:47:12.781Z,90.00
2019-01-25T02:49:49.781Z,90.80
2019-01-25T02:52:26.663Z,90.00
2019-01-25T02:55:03.215Z,89.60
2019-01-25T02:57:39.996Z,90.00
2019-01-25T03:00:26.184Z,87.80
2019-01-25T03:03:02.951Z,86.70
2019-01-25T03:05:39.612Z,87.20
2019-01-25T03:08:16.164Z,88.00
2019-01-25T03:10:52.960Z,88.90
2019-01-25T03:13:29.230Z,86.10
2019-01-25T03:16:06.308Z,84.70
2019-01-25T03:18:42.673Z,83.60
2019-01-25T03:21:19.496Z,84.40
2019-01-25T03:23:55.906Z,81.60
2019-01-25T03:26:33.607Z,84.50
2019-01-25T03:29:10.353Z,83.20
2019-01-25T03:31:47.354Z,81.30
2019-01-25T03:34:23.975Z,84.30
2019-01-25T03:37:00.625Z,82.90
2019-01-25T03:39:37.648Z,79.10
2019-01-25T03:42:14.137Z,80.10
2019-01-25T03:44:50.727Z,80.20
2019-01-25T03:47:27.724Z,81.80
2019-01-25T03:50:04.951Z,81.70
2019-01-25T03:52:41.402Z,79.90
2019-01-25T03:55:19.209Z,80.10
2019-01-25T03:57:57.111Z,79.70
2019-01-25T04:00:34.861Z,76.80
2019-01-25T04:03:11.686Z,77.20
2019-01-25T04:05:48.206Z,75.80
2019-01-25T04:08:26.096Z,80.60
2019-01-25T04:11:03.989Z,76.50
2019-01-25T04:13:40.959Z,75.40
2019-01-25T04:16:17.614Z,75.40
2019-01-25T04:18:54.208Z,77.30
2019-01-25T04:21:31.022Z,72.80
2019-01-25T04:24:07.795Z,73.40
2019-01-25T04:26:44.355Z,73.20
2019-01-25T04:29:21.679Z,71.30
2019-01-25T04:31:58.451Z,75.20
2019-01-25T04:34:35.040Z,74.40
2019-01-25T04:37:12.182Z,72.60
2019-01-25T04:39:49.223Z,74.80
2019-01-25T04:42:26.753Z,71.30
2019-01-25T04:45:03.884Z,69.50
2019-01-25T04:47:40.540Z,72.30
2019-01-25T04:50:19.890Z,72.10
2019-01-25T04:52:56.734Z,71.90
2019-01-25T04:55:49.834Z,69.00
2019-01-25T04:58:26.943Z,69.20
2019-01-25T05:01:10.687Z,70.90
2019-01-25T05:03:47.550Z,68.80
2019-01-25T05:06:24.719Z,68.60
2019-01-25T05:09:01.170Z,65.30
2019-01-25T05:11:39.573Z,65.40
2019-01-25T05:14:16.264Z,67.30
2019-01-25T05:16:52.749Z,67.60
2019-01-25T05:19:29.136Z,65.10
2019-01-25T05:22:06.392Z,66.80
2019-01-25T05:24:43.229Z,63.60
2019-01-25T05:27:20.265Z,66.90
2019-01-25T05:29:58.680Z,66.90
2019-01-25T05:32:35.650Z,64.90
2019-01-25T05:35:12.499Z,63.20
2019-01-25T05:37:49.469Z,65.80
2019-01-25T05:40:27.639Z,64.70
2019-01-25T05:43:04.144Z,61.60
2019-01-25T05:45:46.378Z,62.10
2019-01-25T05:48:23.430Z,61.90
2019-01-25T05:51:04.216Z,62.60
2019-01-25T05:53:41.276Z,61.70
2019-01-25T05:56:18.108Z,64.10
2019-01-25T05:58:54.862Z,62.30
2019-01-25T06:01:31.555Z,63.60
2019-01-25T06:04:08.392Z,61.70
2019-01-25T06:06:45.128Z,60.50
2019-01-25T06:09:26.405Z,61.70
2019-01-25T06:12:02.878Z,65.20
2019-01-25T06:14:39.473Z,63.60
2019-01-25T06:17:15.913Z,63.30
2019-01-25T06:19:52.845Z,63.80
2019-01-25T06:22:29.732Z,60.80
2019-01-25T06:25:06.918Z,61.80
2019-01-25T06:28:00.094Z,58.60
2019-01-25T06:30:37.376Z,60.30
2019-01-25T06:33:14.056Z,60.10
2019-01-25T06:35:50.622Z,57.50
2019-01-25T06:38:27.344Z,58.00
2019-01-25T06:41:03.816Z,57.70
2019-01-25T06:43:40.596Z,60.10
2019-01-25T06:46:17.625Z,58.40
2019-01-25T06:48:54.290Z,59.20
2019-01-25T06:51:32.025Z,59.80
2019-01-25T06:54:08.712Z,58.10
2019-01-25T06:56:45.184Z,57.60
2019-01-25T06:59:27.693Z,56.00
2019-01-25T07:02:20.844Z,56.80
2019-01-25T07:04:57.691Z,57.60
2019-01-25T07:07:36.306Z,57.60
2019-01-25T07:10:16.615Z,57.10
2019-01-25T07:12:53.297Z,56.30
2019-01-25T07:15:30.065Z,55.30
2019-01-25T07:18:07.231Z,56.70
2019-01-25T07:20:43.526Z,56.30
2019-01-25T07:23:20.492Z,58.50
2019-01-25T07:25:57.249Z,55.60
2019-01-25T07:28:34.077Z,54.10
2019-01-25T07:31:11.182Z,55.00
2019-01-25T07:33:48.073Z,54.20
2019-01-25T07:36:24.628Z,55.10
2019-01-25T07:39:01.406Z,53.00
2019-01-25T07:41:39.392Z,56.90
2019-01-25T07:44:15.901Z,54.70
2019-01-25T07:46:52.700Z,53.40
2019-01-25T07:49:29.137Z,56.00
2019-01-25T07:52:07.362Z,56.70
2019-01-25T07:54:44.126Z,55.20
2019-01-25T07:57:20.823Z,53.80
2019-01-25T07:59:57.027Z,53.20
2019-01-25T08:02:33.596Z,53.90
2019-01-25T08:05:10.713Z,55.70
2019-01-25T08:07:47.669Z,51.00
2019-01-25T08:10:24.226Z,55.40
2019-01-25T08:13:02.254Z,54.80
2019-01-25T08:15:38.965Z,52.10
2019-01-25T08:18:15.680Z,51.90
2019-01-25T08:20:52.893Z,53.80
2019-01-25T08:23:29.870Z,54.80
2019-01-25T08:26:06.516Z,53.20
2019-01-25T08:28:43.265Z,50.40
2019-01-25T08:31:20.865Z,51.80
2019-01-25T08:33:57.502Z,53.20
2019-01-25T08:36:34.349Z,53.50
2019-01-25T08:39:14.226Z,52.20
2019-01-25T08:41:51.168Z,50.60
2019-01-25T08:44:28.954Z,52.40
2019-01-25T08:47:05.857Z,53.70
2019-01-25T08:49:42.533Z,53.70
2019-01-25T08:52:19.326Z,54.90
2019-01-25T08:54:56.176Z,53.20
2019-01-25T08:57:32.605Z,55.70
2019-01-25T09:00:11.107Z,53.90
2019-01-25T09:02:48.075Z,53.80
2019-01-25T09:05:25.293Z,54.50
2019-01-25T09:08:01.540Z,52.10
2019-01-25T09:10:38.739Z,50.20
2019-01-25T09:13:17.975Z,52.60
2019-01-25T09:15:54.948Z,53.50
2019-01-25T09:18:31.643Z,53.00
2019-01-25T09:21:08.449Z,53.00
2019-01-25T09:23:45.004Z,52.00
2019-01-25T09:26:21.875Z,50.80
2019-01-25T09:28:58.697Z,51.80
2019-01-25T09:31:35.199Z,51.40
2019-01-25T09:34:12.430Z,54.00
2019-01-25T09:36:49.263Z,52.60
2019-01-25T09:39:26.762Z,53.60
2019-01-25T09:42:03.832Z,53.20
2019-01-25T09:44:40.804Z,51.80
2019-01-25T09:47:17.823Z,51.80
2019-01-25T09:49:55.303Z,51.80
2019-01-25T09:52:32.277Z,53.90
2019-01-25T09:55:09.283Z,50.60
2019-01-25T09:57:46.032Z,51.10
2019-01-25T10:00:29.747Z,54.30
2019-01-25T10:03:06.675Z,54.50
2019-01-25T10:05:43.622Z,53.90
2019-01-25T10:08:20.488Z,52.60
2019-01-25T10:10:56.995Z,52.50
2019-01-25T10:13:34.179Z,53.30
2019-01-25T10:16:10.834Z,52.90
2019-01-25T10:18:48.528Z,52.60
2019-01-25T10:21:25.108Z,52.60
2019-01-25T10:24:02.781Z,52.90
2019-01-25T10:26:40.356Z,54.60
2019-01-25T10:29:20.033Z,54.70
2019-01-25T10:31:55.140Z,54.50
2019-01-25T10:34:32.237Z,54.00
2019-01-25T10:37:10.038Z,54.70
2019-01-25T10:39:46.887Z,54.70
2019-01-25T10:42:23.915Z,54.60
2019-01-25T10:45:04.456Z,55.20
2019-01-25T10:47:39.686Z,56.00
2019-01-25T10:50:16.720Z,57.60
2019-01-25T10:52:53.616Z,57.00
2019-01-25T10:55:30.149Z,58.70
2019-01-25T10:58:07.157Z,61.20
2019-01-25T11:00:43.839Z,61.00
2019-01-25T11:03:21.028Z,62.00
2019-01-25T11:05:57.494Z,64.10
2019-01-25T11:08:34.061Z,63.90
2019-01-25T11:11:10.957Z,65.70
2019-01-25T11:13:47.602Z,67.90
2019-01-25T11:16:24.738Z,67.50
2019-01-25T11:19:01.533Z,68.90
2019-01-25T11:21:38.598Z,68.90
2019-01-25T11:24:15.422Z,70.10
2019-01-25T11:26:51.861Z,68.80
2019-01-25T11:29:31.285Z,67.60
2019-01-25T11:32:08.534Z,70.30
2019-01-25T11:34:44.985Z,71.00
2019-01-25T11:37:22.198Z,73.60
2019-01-25T11:39:58.518Z,75.50
2019-01-25T11:42:35.496Z,74.80
2019-01-25T11:45:12.428Z,76.40
2019-01-25T11:47:49.515Z,74.20
2019-01-25T11:50:26.554Z,78.00
2019-01-25T11:53:03.848Z,77.70
2019-01-25T11:55:40.504Z,77.00
2019-01-25T11:58:17.279Z,78.20
2019-01-25T12:00:53.906Z,80.20
2019-01-25T12:03:30.979Z,80.00
2019-01-25T12:06:08.844Z,79.70
2019-01-25T12:08:46.090Z,79.80
2019-01-25T12:11:22.805Z,82.60
2019-01-25T12:13:59.655Z,82.80
2019-01-25T12:16:36.354Z,84.60
2019-01-25T12:19:13.374Z,85.70
2019-01-25T12:21:49.672Z,85.10
2019-01-25T12:24:26.592Z,82.80
2019-01-25T12:27:04.033Z,83.30
2019-01-25T12:29:40.704Z,85.40
2019-01-25T12:32:17.983Z,87.90
2019-01-25T12:34:54.822Z,87.00
2019-01-25T12:37:31.430Z,84.90
2019-01-25T12:40:08.893Z,83.80
2019-01-25T12:42:46.297Z,86.50
2019-01-25T12:45:25.185Z,88.30
2019-01-25T12:48:02.186Z,90.20
2019-01-25T12:51:09.895Z,90.70
2019-01-25T12:53:47.111Z,91.40
2019-01-25T12:56:24.609Z,91.80
2019-01-25T12:59:00.979Z,91.20
2019-01-25T13:01:37.938Z,91.20
2019-01-25T13:04:14.908Z,92.50
2019-01-25T13:06:52.428Z,93.20
2019-01-25T13:09:29.416Z,93.40
2019-01-25T13:12:10.072Z,93.90
2019-01-25T13:14:47.453Z,93.80
2019-01-25T13:17:24.862Z,94.40
2019-01-25T13:20:02.089Z,94.40
2019-01-25T13:22:39.495Z,95.00
2019-01-25T13:25:18.770Z,95.10
2019-01-25T13:27:55.580Z,94.90
2019-01-25T13:30:33.765Z,95.10
2019-01-25T13:33:11.106Z,94.80
2019-01-25T13:35:48.500Z,94.40
2019-01-25T13:38:25.070Z,94.40
2019-01-25T13:41:01.966Z,94.30
2019-01-25T13:43:39.341Z,94.10
2019-01-25T13:46:17.147Z,95.50
2019-01-25T13:48:53.610Z,95.10
2019-01-25T13:51:30.213Z,95.00
2019-01-25T13:54:09.637Z,94.90
2019-01-25T13:56:49.440Z,94.90
2019-01-25T13:59:26.454Z,94.70
2019-01-25T14:02:03.721Z,94.70
2019-01-25T14:04:40.132Z,94.00
2019-01-25T14:07:21.032Z,94.20
2019-01-25T14:09:56.261Z,94.10
2019-01-25T14:12:33.398Z,94.00
2019-01-25T14:15:14.038Z,94.60
2019-01-25T14:17:50.590Z,94.70
2019-01-25T14:20:29.909Z,94.90
2019-01-25T14:23:06.823Z,95.20
2019-01-25T14:25:45.426Z,95.10
2019-01-25T14:28:22.661Z,94.90
2019-01-25T14:31:01.200Z,94.60
2019-01-25T14:33:38.217Z,94.70
2019-01-25T14:36:15.441Z,94.70
2019-01-25T14:38:53.637Z,94.50
2019-01-25T14:41:34.880Z,95.00
2019-01-25T14:44:12.082Z,96.20
2019-01-25T14:46:50.108Z,96.70
2019-01-25T14:49:27.238Z,97.20
2019-01-25T14:52:03.827Z,97.90
2019-01-25T14:54:41.129Z,97.00
2019-01-25T14:57:18.376Z,97.20
2019-01-25T14:59:55.172Z,97.10
2019-01-25T15:02:33.169Z,96.40
2019-01-25T15:05:12.442Z,95.80
2019-01-25T15:07:49.966Z,95.50
2019-01-25T15:10:27.660Z,95.90
2019-01-25T15:13:05.272Z,96.10
2019-01-25T15:15:44.893Z,95.90
2019-01-25T15:18:21.486Z,95.90
2019-01-25T15:20:58.036Z,96.40
2019-01-25T15:23:34.943Z,97.40
2019-01-25T15:26:11.221Z,98.20
2019-01-25T15:28:47.833Z,98.30
2019-01-25T15:31:25.040Z,98.10
2019-01-25T15:34:02.143Z,97.90
2019-01-25T15:36:39.047Z,98.50
2019-01-25T15:39:16.681Z,98.20
2019-01-25T15:41:53.712Z,98.20
2019-01-25T15:44:30.426Z,98.90
2019-01-25T15:47:07.179Z,98.90
2019-01-25T15:49:44.124Z,98.90
2019-01-25T15:52:20.770Z,99.10
2019-01-25T15:54:57.744Z,99.50
2019-01-25T15:57:34.410Z,99.20
2019-01-25T16:00:17.065Z,99.90
2019-01-25T16:02:53.890Z,99.70
2019-01-25T16:05:31.299Z,99.80
2019-01-25T16:08:08.715Z,99.50
2019-01-25T16:10:45.540Z,98.60
2019-01-25T16:13:22.016Z,98.10
2019-01-25T16:15:58.508Z,97.70
2019-01-25T16:18:35.772Z,97.50
2019-01-25T16:21:12.820Z,96.70
2019-01-25T16:23:49.875Z,97.00
2019-01-25T16:26:26.559Z,96.40
2019-01-25T16:29:03.864Z,96.90
2019-01-25T16:31:40.479Z,95.50
2019-01-25T16:34:17.666Z,94.30
2019-01-25T16:36:54.964Z,93.20
2019-01-25T16:39:31.747Z,93.60
2019-01-25T16:42:09.135Z,92.90
2019-01-25T16:44:46.791Z,92.80
2019-01-25T16:47:24.373Z,92.40
2019-01-25T16:50:01.547Z,92.70
2019-01-25T16:52:38.670Z,92.90
2019-01-25T16:55:16.344Z,93.20
2019-01-25T16:57:53.028Z,93.40
2019-01-25T17:00:35.849Z,93.10
2019-01-25T17:03:13.721Z,92.90
2019-01-25T17:05:53.964Z,93.50
2019-01-25T17:08:31.619Z,92.90
2019-01-25T17:11:08.988Z,93.70
2019-01-25T17:13:45.639Z,93.70
2019-01-25T17:16:22.338Z,93.80
2019-01-25T17:18:59.268Z,93.40
2019-01-25T17:21:36.212Z,93.90
2019-01-25T17:24:14.221Z,93.90
2019-01-25T17:26:51.022Z,94.10
2019-01-25T17:29:28.117Z,94.10
2019-01-25T17:32:05.603Z,93.30
2019-01-25T17:34:42.398Z,94.20
2019-01-25T17:37:19.303Z,93.30
2019-01-25T17:39:56.506Z,94.40
2019-01-25T17:42:33.987Z,94.30
2019-01-25T17:45:11.703Z,93.50
2019-01-25T17:47:48.283Z,93.90
2019-01-25T17:50:25.341Z,94.30
2019-01-25T17:53:02.206Z,94.10
2019-01-25T17:55:39.320Z,94.10
2019-01-25T17:58:18.783Z,94.20
2019-01-25T18:00:59.625Z,94.30
2019-01-25T18:03:36.636Z,94.30
2019-01-25T18:06:13.138Z,94.30
2019-01-25T18:08:49.999Z,94.40
2019-01-25T18:11:26.657Z,94.60
2019-01-25T18:14:03.299Z,95.00
2019-01-25T18:16:39.654Z,95.20
2019-01-25T18:19:17.306Z,95.20
2019-01-25T18:21:54.149Z,95.80
2019-01-25T18:24:31.421Z,95.20
2019-01-25T18:27:08.559Z,95.70
2019-01-25T18:29:54.473Z,95.70
2019-01-25T18:32:31.486Z,95.10
2019-01-25T18:35:08.274Z,94.80
2019-01-25T18:37:45.981Z,95.30
2019-01-25T18:40:22.743Z,95.10
2019-01-25T18:42:59.678Z,94.70
2019-01-25T18:45:35.853Z,95.10
2019-01-25T18:48:14.352Z,95.00
2019-01-25T18:50:50.896Z,94.80
2019-01-25T18:53:27.835Z,94.70
2019-01-25T18:56:04.644Z,95.00
2019-01-25T18:58:41.866Z,95.10
2019-01-25T19:01:18.660Z,95.00
2019-01-25T19:03:55.682Z,95.00
2019-01-25T19:06:32.549Z,94.80
2019-01-25T19:09:11.813Z,94.50
2019-01-25T19:11:48.084Z,94.80
2019-01-25T19:14:25.409Z,94.70
2019-01-25T19:17:02.301Z,94.80
2019-01-25T19:19:42.642Z,94.30
2019-01-25T19:22:19.430Z,94.00
2019-01-25T19:24:56.380Z,93.90
2019-01-25T19:27:33.172Z,94.20
2019-01-25T19:30:14.514Z,94.10
2019-01-25T19:32:50.995Z,93.80
2019-01-25T19:35:27.864Z,93.80
2019-01-25T19:38:04.901Z,93.50
2019-01-25T19:40:41.836Z,93.90
2019-01-25T19:43:18.439Z,93.70
2019-01-25T19:45:55.239Z,93.50
2019-01-25T19:48:32.556Z,94.00
2019-01-25T19:51:09.256Z,94.30
2019-01-25T19:53:45.868Z,93.30
2019-01-25T19:56:22.720Z,93.10
2019-01-25T19:58:59.367Z,93.10
2019-01-25T20:01:36.105Z,93.30
2019-01-25T20:04:12.954Z,93.50
2019-01-25T20:06:49.805Z,93.20
2019-01-25T20:09:26.319Z,92.70
2019-01-25T20:12:03.439Z,92.90
2019-01-25T20:14:40.446Z,93.00
2019-01-25T20:17:16.928Z,92.20
2019-01-25T20:19:54.152Z,92.50
2019-01-25T20:22:31.160Z,92.60
2019-01-25T20:25:07.882Z,93.00
2019-01-25T20:27:44.378Z,92.30
2019-01-25T20:30:32.557Z,92.60
2019-01-25T20:33:09.581Z,93.10
2019-01-25T20:35:47.408Z,92.80
2019-01-25T20:38:24.036Z,92.60
2019-01-25T20:41:01.098Z,92.90
2019-01-25T20:43:38.044Z,93.40
2019-01-25T20:46:14.962Z,93.40
2019-01-25T20:48:51.597Z,93.80
2019-01-25T20:51:28.876Z,93.30
2019-01-25T20:54:05.527Z,92.80
2019-01-25T20:56:42.110Z,93.50
2019-01-25T20:59:19.246Z,94.10
2019-01-25T21:01:55.478Z,94.00
2019-01-25T21:04:32.524Z,94.30
2019-01-25T21:07:09.325Z,94.50
2019-01-25T21:09:46.078Z,93.90
2019-01-25T21:12:22.740Z,93.60
2019-01-25T21:15:00.338Z,93.90
2019-01-25T21:17:37.036Z,94.30
2019-01-25T21:20:21.060Z,94.50
2019-01-25T21:22:57.621Z,94.60
2019-01-25T21:25:34.400Z,94.60
2019-01-25T21:28:11.575Z,94.10
2019-01-25T21:30:47.841Z,94.10
2019-01-25T21:33:24.439Z,94.30
2019-01-25T21:36:01.373Z,93.70
2019-01-25T21:38:38.165Z,93.40
2019-01-25T21:41:14.615Z,93.10
2019-01-25T21:43:51.694Z,93.50
2019-01-25T21:46:28.578Z,93.30
2019-01-25T21:49:05.372Z,93.00
2019-01-25T21:51:41.601Z,93.80
2019-01-25T21:54:18.863Z,93.10
2019-01-25T21:56:55.402Z,93.10
2019-01-25T21:59:32.280Z,93.40
2019-01-25T22:02:08.872Z,93.10
2019-01-25T22:04:45.909Z,93.30
2019-01-25T22:07:23.012Z,93.30
2019-01-25T22:10:00.596Z,93.60
2019-01-25T22:12:39.181Z,93.30
2019-01-25T22:15:16.818Z,93.70
2019-01-25T22:17:53.517Z,93.80
2019-01-25T22:20:31.855Z,93.30
2019-01-25T22:23:09.103Z,93.70
2019-01-25T22:25:46.486Z,93.60
2019-01-25T22:28:23.275Z,93.70
2019-01-25T22:31:00.132Z,93.60
2019-01-25T22:33:36.858Z,93.70
2019-01-25T22:36:13.860Z,94.50
2019-01-25T22:38:51.487Z,93.90
2019-01-25T22:41:28.660Z,94.70
2019-01-25T22:44:06.189Z,94.60
2019-01-25T22:46:42.783Z,94.50
2019-01-25T22:49:19.562Z,94.60
2019-01-25T22:51:56.093Z,94.70
2019-01-25T22:54:33.345Z,95.10
2019-01-25T22:57:10.153Z,95.30
2019-01-25T22:59:47.149Z,95.20
2019-01-25T23:02:23.847Z,95.80
2019-01-25T23:05:34.466Z,95.70
2019-01-25T23:08:11.163Z,95.60
2019-01-25T23:10:48.279Z,96.00
2019-01-25T23:13:25.101Z,96.50
2019-01-25T23:16:06.318Z,96.90
2019-01-25T23:18:39.610Z,97.10
2019-01-25T23:21:16.614Z,97.50
2019-01-25T23:23:53.365Z,97.50
2019-01-25T23:26:29.817Z,97.40
2019-01-25T23:29:06.574Z,97.30
2019-01-25T23:31:44.318Z,97.40
2019-01-25T23:34:21.281Z,97.60
2019-01-25T23:36:57.806Z,97.90
2019-01-25T23:39:34.654Z,97.60
2019-01-25T23:42:11.534Z,98.10
2019-01-25T23:44:48.207Z,98.10
2019-01-25T23:47:24.963Z,98.20
2019-01-25T23:50:01.870Z,98.10
2019-01-25T23:52:38.598Z,98.10
2019-01-25T23:55:15.643Z,98.10
2019-01-25T23:57:52.462Z,98.50
